sensor_id;sensor_type;location;lat;lon;timestamp;P1;durP1;ratioP1;P2;durP2;ratioP2
7539;SDS011;3811;49.006;12.076;2023-04-25T00:00:07;2.53;;;2.00;;
7539;SDS011;3811;49.006;12.076;2023-04-25T00:02:38;2.60;;;2.40;;
7539;SDS011;3811;49.006;12.076;2023-04-25T00:05:05;2.13;;;2.03;;
7539;SDS011;3811;49.006;12.076;2023-04-25T00:07:33;2.53;;;2.33;;
7539;SDS011;3811;49.006;12.076;2023-04-25T00:10:00;4.50;;;2.43;;
7539;SDS011;3811;49.006;12.076;2023-04-25T00:12:28;3.40;;;2.50;;
7539;SDS011;3811;49.006;12.076;2023-04-25T00:14:57;2.67;;;2.23;;
7539;SDS011;3811;49.006;12.076;2023-04-25T00:17:25;2.33;;;2.13;;
7539;SDS011;3811;49.006;12.076;2023-04-25T00:19:52;4.00;;;2.17;;
7539;SDS011;3811;49.006;12.076;2023-04-25T00:22:19;2.77;;;2.57;;
7539;SDS011;3811;49.006;12.076;2023-04-25T00:24:46;2.47;;;2.27;;
7539;SDS011;3811;49.006;12.076;2023-04-25T00:27:13;2.63;;;2.30;;
7539;SDS011;3811;49.006;12.076;2023-04-25T00:29:40;6.20;;;2.50;;
7539;SDS011;3811;49.006;12.076;2023-04-25T00:32:09;2.70;;;2.50;;
7539;SDS011;3811;49.006;12.076;2023-04-25T00:34:37;3.10;;;2.73;;
7539;SDS011;3811;49.006;12.076;2023-04-25T00:37:04;2.73;;;2.47;;
7539;SDS011;3811;49.006;12.076;2023-04-25T00:39:31;2.53;;;2.33;;
7539;SDS011;3811;49.006;12.076;2023-04-25T00:41:58;2.70;;;2.50;;
7539;SDS011;3811;49.006;12.076;2023-04-25T00:44:27;2.97;;;2.77;;
7539;SDS011;3811;49.006;12.076;2023-04-25T00:46:54;2.70;;;2.50;;
7539;SDS011;3811;49.006;12.076;2023-04-25T00:49:23;3.53;;;2.50;;
7539;SDS011;3811;49.006;12.076;2023-04-25T00:51:50;3.03;;;2.80;;
7539;SDS011;3811;49.006;12.076;2023-04-25T00:54:17;3.00;;;2.77;;
7539;SDS011;3811;49.006;12.076;2023-04-25T00:56:44;2.63;;;2.43;;
7539;SDS011;3811;49.006;12.076;2023-04-25T00:59:12;3.53;;;2.60;;
7539;SDS011;3811;49.006;12.076;2023-04-25T01:01:40;2.80;;;2.60;;
7539;SDS011;3811;49.006;12.076;2023-04-25T01:04:08;3.50;;;3.10;;
7539;SDS011;3811;49.006;12.076;2023-04-25T01:06:36;3.53;;;2.67;;
7539;SDS011;3811;49.006;12.076;2023-04-25T01:09:04;4.53;;;2.80;;
7539;SDS011;3811;49.006;12.076;2023-04-25T01:11:31;3.00;;;2.70;;
7539;SDS011;3811;49.006;12.076;2023-04-25T01:13:58;5.70;;;3.17;;
7539;SDS011;3811;49.006;12.076;2023-04-25T01:16:27;3.37;;;3.07;;
7539;SDS011;3811;49.006;12.076;2023-04-25T01:18:55;4.63;;;3.10;;
7539;SDS011;3811;49.006;12.076;2023-04-25T01:21:23;4.80;;;2.87;;
7539;SDS011;3811;49.006;12.076;2023-04-25T01:23:53;4.13;;;3.20;;
7539;SDS011;3811;49.006;12.076;2023-04-25T01:26:21;3.20;;;3.00;;
7539;SDS011;3811;49.006;12.076;2023-04-25T01:28:48;3.20;;;2.93;;
7539;SDS011;3811;49.006;12.076;2023-04-25T01:31:16;2.67;;;2.47;;
7539;SDS011;3811;49.006;12.076;2023-04-25T01:33:44;3.27;;;2.97;;
7539;SDS011;3811;49.006;12.076;2023-04-25T01:36:11;2.90;;;2.70;;
7539;SDS011;3811;49.006;12.076;2023-04-25T01:38:42;3.43;;;3.13;;
7539;SDS011;3811;49.006;12.076;2023-04-25T01:41:11;2.87;;;2.60;;
7539;SDS011;3811;49.006;12.076;2023-04-25T01:43:38;2.93;;;2.63;;
7539;SDS011;3811;49.006;12.076;2023-04-25T01:46:06;3.10;;;2.80;;
7539;SDS011;3811;49.006;12.076;2023-04-25T01:48:33;3.03;;;2.83;;
7539;SDS011;3811;49.006;12.076;2023-04-25T01:51:00;3.23;;;2.93;;
7539;SDS011;3811;49.006;12.076;2023-04-25T01:53:28;5.40;;;3.30;;
7539;SDS011;3811;49.006;12.076;2023-04-25T01:55:58;3.37;;;2.87;;
7539;SDS011;3811;49.006;12.076;2023-04-25T01:58:29;3.40;;;2.70;;
7539;SDS011;3811;49.006;12.076;2023-04-25T02:00:59;5.87;;;3.33;;
7539;SDS011;3811;49.006;12.076;2023-04-25T02:03:34;3.20;;;2.90;;
7539;SDS011;3811;49.006;12.076;2023-04-25T02:06:03;2.83;;;2.63;;
7539;SDS011;3811;49.006;12.076;2023-04-25T02:08:33;3.83;;;3.53;;
7539;SDS011;3811;49.006;12.076;2023-04-25T02:11:01;3.90;;;3.40;;
7539;SDS011;3811;49.006;12.076;2023-04-25T02:13:36;3.13;;;2.77;;
7539;SDS011;3811;49.006;12.076;2023-04-25T02:16:16;3.47;;;2.70;;
7539;SDS011;3811;49.006;12.076;2023-04-25T02:18:43;3.33;;;2.77;;
7539;SDS011;3811;49.006;12.076;2023-04-25T02:21:12;3.47;;;2.90;;
7539;SDS011;3811;49.006;12.076;2023-04-25T02:23:39;4.77;;;2.90;;
7539;SDS011;3811;49.006;12.076;2023-04-25T02:26:08;4.83;;;3.27;;
7539;SDS011;3811;49.006;12.076;2023-04-25T02:28:36;3.23;;;2.83;;
7539;SDS011;3811;49.006;12.076;2023-04-25T02:31:03;2.97;;;2.77;;
7539;SDS011;3811;49.006;12.076;2023-04-25T02:33:31;3.30;;;3.00;;
7539;SDS011;3811;49.006;12.076;2023-04-25T02:35:58;3.80;;;3.40;;
7539;SDS011;3811;49.006;12.076;2023-04-25T02:38:25;2.83;;;2.43;;
7539;SDS011;3811;49.006;12.076;2023-04-25T02:40:52;3.13;;;2.90;;
7539;SDS011;3811;49.006;12.076;2023-04-25T02:43:21;3.70;;;3.30;;
7539;SDS011;3811;49.006;12.076;2023-04-25T02:45:50;3.40;;;3.10;;
7539;SDS011;3811;49.006;12.076;2023-04-25T02:48:17;3.10;;;2.60;;
7539;SDS011;3811;49.006;12.076;2023-04-25T02:50:44;3.30;;;3.00;;
7539;SDS011;3811;49.006;12.076;2023-04-25T02:53:12;3.97;;;2.97;;
7539;SDS011;3811;49.006;12.076;2023-04-25T02:55:44;2.90;;;2.70;;
7539;SDS011;3811;49.006;12.076;2023-04-25T02:58:12;3.77;;;3.37;;
7539;SDS011;3811;49.006;12.076;2023-04-25T03:00:48;3.87;;;2.87;;
7539;SDS011;3811;49.006;12.076;2023-04-25T03:03:16;3.13;;;2.70;;
7539;SDS011;3811;49.006;12.076;2023-04-25T03:05:47;3.60;;;3.30;;
7539;SDS011;3811;49.006;12.076;2023-04-25T03:08:17;4.10;;;3.70;;
7539;SDS011;3811;49.006;12.076;2023-04-25T03:10:45;3.47;;;3.17;;
7539;SDS011;3811;49.006;12.076;2023-04-25T03:13:14;3.20;;;2.90;;
7539;SDS011;3811;49.006;12.076;2023-04-25T03:15:43;3.40;;;3.10;;
7539;SDS011;3811;49.006;12.076;2023-04-25T03:18:12;4.20;;;2.90;;
7539;SDS011;3811;49.006;12.076;2023-04-25T03:20:39;6.47;;;3.40;;
7539;SDS011;3811;49.006;12.076;2023-04-25T03:23:08;3.50;;;3.20;;
7539;SDS011;3811;49.006;12.076;2023-04-25T03:25:37;3.50;;;3.17;;
7539;SDS011;3811;49.006;12.076;2023-04-25T03:28:05;2.90;;;2.70;;
7539;SDS011;3811;49.006;12.076;2023-04-25T03:30:32;2.87;;;2.63;;
7539;SDS011;3811;49.006;12.076;2023-04-25T03:33:00;3.53;;;3.20;;
7539;SDS011;3811;49.006;12.076;2023-04-25T03:35:29;5.83;;;3.27;;
7539;SDS011;3811;49.006;12.076;2023-04-25T03:37:56;3.60;;;3.10;;
7539;SDS011;3811;49.006;12.076;2023-04-25T03:40:28;3.73;;;3.00;;
7539;SDS011;3811;49.006;12.076;2023-04-25T03:43:27;4.33;;;2.87;;
7539;SDS011;3811;49.006;12.076;2023-04-25T03:46:00;2.97;;;2.77;;
7539;SDS011;3811;49.006;12.076;2023-04-25T03:48:28;2.73;;;2.53;;
7539;SDS011;3811;49.006;12.076;2023-04-25T03:50:56;4.73;;;3.13;;
7539;SDS011;3811;49.006;12.076;2023-04-25T03:53:23;3.03;;;2.70;;
7539;SDS011;3811;49.006;12.076;2023-04-25T03:56:20;3.30;;;2.90;;
7539;SDS011;3811;49.006;12.076;2023-04-25T03:58:55;4.13;;;3.27;;
7539;SDS011;3811;49.006;12.076;2023-04-25T04:01:24;3.30;;;3.00;;
7539;SDS011;3811;49.006;12.076;2023-04-25T04:03:51;3.20;;;2.90;;
7539;SDS011;3811;49.006;12.076;2023-04-25T04:06:20;3.83;;;3.40;;
7539;SDS011;3811;49.006;12.076;2023-04-25T04:08:53;3.33;;;3.00;;
7539;SDS011;3811;49.006;12.076;2023-04-25T04:11:20;3.50;;;3.20;;
7539;SDS011;3811;49.006;12.076;2023-04-25T04:13:48;2.87;;;2.67;;
7539;SDS011;3811;49.006;12.076;2023-04-25T04:16:15;2.83;;;2.53;;
7539;SDS011;3811;49.006;12.076;2023-04-25T04:18:43;2.63;;;2.43;;
7539;SDS011;3811;49.006;12.076;2023-04-25T04:21:10;3.50;;;2.70;;
7539;SDS011;3811;49.006;12.076;2023-04-25T04:23:41;3.00;;;2.80;;
7539;SDS011;3811;49.006;12.076;2023-04-25T04:26:09;3.03;;;2.83;;
7539;SDS011;3811;49.006;12.076;2023-04-25T04:28:58;6.63;;;3.30;;
7539;SDS011;3811;49.006;12.076;2023-04-25T04:31:39;2.73;;;2.53;;
7539;SDS011;3811;49.006;12.076;2023-04-25T04:34:06;3.10;;;2.90;;
7539;SDS011;3811;49.006;12.076;2023-04-25T04:36:35;5.03;;;2.93;;
7539;SDS011;3811;49.006;12.076;2023-04-25T04:39:05;3.00;;;2.70;;
7539;SDS011;3811;49.006;12.076;2023-04-25T04:41:38;2.97;;;2.77;;
7539;SDS011;3811;49.006;12.076;2023-04-25T04:44:13;3.20;;;2.73;;
7539;SDS011;3811;49.006;12.076;2023-04-25T04:46:58;2.57;;;2.37;;
7539;SDS011;3811;49.006;12.076;2023-04-25T04:49:28;2.97;;;2.70;;
7539;SDS011;3811;49.006;12.076;2023-04-25T04:52:19;4.60;;;2.90;;
7539;SDS011;3811;49.006;12.076;2023-04-25T04:55:23;2.90;;;2.70;;
7539;SDS011;3811;49.006;12.076;2023-04-25T04:58:02;3.37;;;2.83;;
7539;SDS011;3811;49.006;12.076;2023-04-25T05:00:38;4.87;;;3.20;;
7539;SDS011;3811;49.006;12.076;2023-04-25T05:03:29;3.77;;;3.23;;
7539;SDS011;3811;49.006;12.076;2023-04-25T05:06:05;4.03;;;3.50;;
7539;SDS011;3811;49.006;12.076;2023-04-25T05:08:46;4.07;;;3.67;;
7539;SDS011;3811;49.006;12.076;2023-04-25T05:11:46;3.83;;;3.43;;
7539;SDS011;3811;49.006;12.076;2023-04-25T05:14:31;4.30;;;3.63;;
7539;SDS011;3811;49.006;12.076;2023-04-25T05:17:12;4.50;;;4.00;;
7539;SDS011;3811;49.006;12.076;2023-04-25T05:19:57;4.57;;;3.37;;
7539;SDS011;3811;49.006;12.076;2023-04-25T05:22:38;4.40;;;3.70;;
7539;SDS011;3811;49.006;12.076;2023-04-25T05:25:19;4.40;;;3.77;;
7539;SDS011;3811;49.006;12.076;2023-04-25T05:27:48;7.17;;;4.10;;
7539;SDS011;3811;49.006;12.076;2023-04-25T05:30:35;6.07;;;3.60;;
7539;SDS011;3811;49.006;12.076;2023-04-25T05:33:24;4.20;;;3.90;;
7539;SDS011;3811;49.006;12.076;2023-04-25T05:35:52;4.40;;;4.00;;
7539;SDS011;3811;49.006;12.076;2023-04-25T05:38:20;3.93;;;3.60;;
7539;SDS011;3811;49.006;12.076;2023-04-25T05:41:05;3.97;;;3.57;;
7539;SDS011;3811;49.006;12.076;2023-04-25T05:43:56;5.03;;;4.13;;
7539;SDS011;3811;49.006;12.076;2023-04-25T05:46:32;6.40;;;3.40;;
7539;SDS011;3811;49.006;12.076;2023-04-25T05:49:18;5.67;;;4.00;;
7539;SDS011;3811;49.006;12.076;2023-04-25T05:52:21;6.27;;;3.50;;
7539;SDS011;3811;49.006;12.076;2023-04-25T05:55:11;5.53;;;3.67;;
7539;SDS011;3811;49.006;12.076;2023-04-25T05:57:39;4.17;;;3.27;;
7539;SDS011;3811;49.006;12.076;2023-04-25T06:00:12;3.40;;;2.97;;
7539;SDS011;3811;49.006;12.076;2023-04-25T06:02:43;3.47;;;3.07;;
7539;SDS011;3811;49.006;12.076;2023-04-25T06:05:13;3.93;;;3.53;;
7539;SDS011;3811;49.006;12.076;2023-04-25T06:07:40;3.83;;;3.00;;
7539;SDS011;3811;49.006;12.076;2023-04-25T06:10:08;3.73;;;3.43;;
7539;SDS011;3811;49.006;12.076;2023-04-25T06:12:35;3.57;;;3.27;;
7539;SDS011;3811;49.006;12.076;2023-04-25T06:15:03;4.47;;;3.03;;
7539;SDS011;3811;49.006;12.076;2023-04-25T06:17:32;4.33;;;3.40;;
7539;SDS011;3811;49.006;12.076;2023-04-25T06:20:00;4.13;;;3.20;;
7539;SDS011;3811;49.006;12.076;2023-04-25T06:22:28;4.17;;;3.33;;
7539;SDS011;3811;49.006;12.076;2023-04-25T06:24:55;3.20;;;2.80;;
7539;SDS011;3811;49.006;12.076;2023-04-25T06:27:25;5.67;;;2.97;;
7539;SDS011;3811;49.006;12.076;2023-04-25T06:29:52;3.03;;;2.73;;
7539;SDS011;3811;49.006;12.076;2023-04-25T06:32:19;2.90;;;2.53;;
7539;SDS011;3811;49.006;12.076;2023-04-25T06:34:48;3.40;;;3.00;;
7539;SDS011;3811;49.006;12.076;2023-04-25T06:37:15;4.37;;;2.67;;
7539;SDS011;3811;49.006;12.076;2023-04-25T06:39:43;3.50;;;2.70;;
7539;SDS011;3811;49.006;12.076;2023-04-25T06:42:10;2.77;;;2.37;;
7539;SDS011;3811;49.006;12.076;2023-04-25T06:44:48;3.93;;;2.53;;
7539;SDS011;3811;49.006;12.076;2023-04-25T06:47:16;3.07;;;2.70;;
7539;SDS011;3811;49.006;12.076;2023-04-25T06:49:44;3.57;;;2.90;;
7539;SDS011;3811;49.006;12.076;2023-04-25T06:52:12;2.50;;;2.30;;
7539;SDS011;3811;49.006;12.076;2023-04-25T06:54:40;3.10;;;2.60;;
7539;SDS011;3811;49.006;12.076;2023-04-25T06:57:28;3.93;;;2.83;;
7539;SDS011;3811;49.006;12.076;2023-04-25T07:00:04;2.80;;;2.50;;
7539;SDS011;3811;49.006;12.076;2023-04-25T07:02:34;2.67;;;2.47;;
7539;SDS011;3811;49.006;12.076;2023-04-25T07:05:02;2.60;;;2.40;;
7539;SDS011;3811;49.006;12.076;2023-04-25T07:07:31;4.03;;;2.23;;
7539;SDS011;3811;49.006;12.076;2023-04-25T07:09:59;3.27;;;2.70;;
7539;SDS011;3811;49.006;12.076;2023-04-25T07:12:26;2.63;;;2.43;;
7539;SDS011;3811;49.006;12.076;2023-04-25T07:14:54;2.50;;;2.30;;
7539;SDS011;3811;49.006;12.076;2023-04-25T07:17:21;2.90;;;2.70;;
7539;SDS011;3811;49.006;12.076;2023-04-25T07:19:48;2.70;;;2.50;;
7539;SDS011;3811;49.006;12.076;2023-04-25T07:22:16;2.77;;;2.50;;
7539;SDS011;3811;49.006;12.076;2023-04-25T07:24:44;3.10;;;2.43;;
7539;SDS011;3811;49.006;12.076;2023-04-25T07:27:15;5.70;;;2.70;;
7539;SDS011;3811;49.006;12.076;2023-04-25T07:29:56;4.60;;;2.97;;
7539;SDS011;3811;49.006;12.076;2023-04-25T07:32:23;3.07;;;2.53;;
7539;SDS011;3811;49.006;12.076;2023-04-25T07:34:50;2.53;;;2.33;;
7539;SDS011;3811;49.006;12.076;2023-04-25T07:37:17;3.80;;;3.03;;
7539;SDS011;3811;49.006;12.076;2023-04-25T07:40:00;3.27;;;2.53;;
7539;SDS011;3811;49.006;12.076;2023-04-25T07:42:29;2.67;;;2.47;;
7539;SDS011;3811;49.006;12.076;2023-04-25T07:44:56;2.37;;;2.17;;
7539;SDS011;3811;49.006;12.076;2023-04-25T07:47:24;2.97;;;2.77;;
7539;SDS011;3811;49.006;12.076;2023-04-25T07:49:52;3.87;;;2.30;;
7539;SDS011;3811;49.006;12.076;2023-04-25T07:52:20;2.40;;;2.30;;
7539;SDS011;3811;49.006;12.076;2023-04-25T07:54:52;3.10;;;2.80;;
7539;SDS011;3811;49.006;12.076;2023-04-25T07:57:28;3.27;;;2.30;;
7539;SDS011;3811;49.006;12.076;2023-04-25T07:59:57;3.27;;;2.63;;
7539;SDS011;3811;49.006;12.076;2023-04-25T08:02:25;4.53;;;3.10;;
7539;SDS011;3811;49.006;12.076;2023-04-25T08:04:53;4.00;;;2.70;;
7539;SDS011;3811;49.006;12.076;2023-04-25T08:07:21;2.50;;;2.30;;
7539;SDS011;3811;49.006;12.076;2023-04-25T08:09:51;3.13;;;2.50;;
7539;SDS011;3811;49.006;12.076;2023-04-25T08:12:24;6.13;;;2.90;;
7539;SDS011;3811;49.006;12.076;2023-04-25T08:14:52;3.03;;;2.60;;
7539;SDS011;3811;49.006;12.076;2023-04-25T08:17:22;3.27;;;2.97;;
7539;SDS011;3811;49.006;12.076;2023-04-25T08:19:49;2.40;;;1.97;;
7539;SDS011;3811;49.006;12.076;2023-04-25T08:22:28;3.93;;;2.23;;
7539;SDS011;3811;49.006;12.076;2023-04-25T08:25:20;2.40;;;2.20;;
7539;SDS011;3811;49.006;12.076;2023-04-25T08:27:48;2.30;;;2.03;;
7539;SDS011;3811;49.006;12.076;2023-04-25T08:30:19;2.53;;;2.10;;
7539;SDS011;3811;49.006;12.076;2023-04-25T08:32:46;2.33;;;2.13;;
7539;SDS011;3811;49.006;12.076;2023-04-25T08:35:34;2.70;;;2.50;;
7539;SDS011;3811;49.006;12.076;2023-04-25T08:38:02;1.93;;;1.83;;
7539;SDS011;3811;49.006;12.076;2023-04-25T08:40:29;2.37;;;2.17;;
7539;SDS011;3811;49.006;12.076;2023-04-25T08:43:07;2.10;;;2.00;;
7539;SDS011;3811;49.006;12.076;2023-04-25T08:45:38;2.30;;;2.20;;
7539;SDS011;3811;49.006;12.076;2023-04-25T08:48:09;2.20;;;2.00;;
7539;SDS011;3811;49.006;12.076;2023-04-25T08:50:38;2.50;;;2.30;;
7539;SDS011;3811;49.006;12.076;2023-04-25T08:53:08;2.27;;;2.17;;
7539;SDS011;3811;49.006;12.076;2023-04-25T08:55:41;2.63;;;2.43;;
7539;SDS011;3811;49.006;12.076;2023-04-25T08:58:09;2.50;;;1.97;;
7539;SDS011;3811;49.006;12.076;2023-04-25T09:00:39;2.00;;;1.90;;
7539;SDS011;3811;49.006;12.076;2023-04-25T09:03:06;3.37;;;2.20;;
7539;SDS011;3811;49.006;12.076;2023-04-25T09:05:34;2.70;;;2.13;;
7539;SDS011;3811;49.006;12.076;2023-04-25T09:08:01;2.33;;;2.13;;
7539;SDS011;3811;49.006;12.076;2023-04-25T09:10:28;2.73;;;2.53;;
7539;SDS011;3811;49.006;12.076;2023-04-25T09:13:03;2.00;;;1.90;;
7539;SDS011;3811;49.006;12.076;2023-04-25T09:15:50;3.53;;;2.03;;
7539;SDS011;3811;49.006;12.076;2023-04-25T09:18:41;2.13;;;1.90;;
7539;SDS011;3811;49.006;12.076;2023-04-25T09:21:10;3.53;;;1.90;;
7539;SDS011;3811;49.006;12.076;2023-04-25T09:23:38;2.17;;;2.00;;
7539;SDS011;3811;49.006;12.076;2023-04-25T09:26:07;3.83;;;2.50;;
7539;SDS011;3811;49.006;12.076;2023-04-25T09:28:35;3.43;;;2.20;;
7539;SDS011;3811;49.006;12.076;2023-04-25T09:31:04;2.70;;;2.50;;
7539;SDS011;3811;49.006;12.076;2023-04-25T09:33:36;2.83;;;2.63;;
7539;SDS011;3811;49.006;12.076;2023-04-25T09:36:05;2.23;;;2.10;;
7539;SDS011;3811;49.006;12.076;2023-04-25T09:38:57;1.90;;;1.80;;
7539;SDS011;3811;49.006;12.076;2023-04-25T09:41:28;1.33;;;1.23;;
7539;SDS011;3811;49.006;12.076;2023-04-25T09:43:59;1.80;;;1.70;;
7539;SDS011;3811;49.006;12.076;2023-04-25T09:46:35;1.93;;;1.83;;
7539;SDS011;3811;49.006;12.076;2023-04-25T09:49:06;1.90;;;1.60;;
7539;SDS011;3811;49.006;12.076;2023-04-25T09:51:58;2.10;;;2.00;;
7539;SDS011;3811;49.006;12.076;2023-04-25T09:54:31;2.20;;;2.10;;
7539;SDS011;3811;49.006;12.076;2023-04-25T09:57:12;3.93;;;2.37;;
7539;SDS011;3811;49.006;12.076;2023-04-25T09:59:45;2.43;;;2.17;;
7539;SDS011;3811;49.006;12.076;2023-04-25T10:02:15;2.63;;;2.43;;
7539;SDS011;3811;49.006;12.076;2023-04-25T10:04:47;3.10;;;2.90;;
7539;SDS011;3811;49.006;12.076;2023-04-25T10:07:49;2.70;;;2.50;;
7539;SDS011;3811;49.006;12.076;2023-04-25T10:10:16;2.80;;;2.23;;
7539;SDS011;3811;49.006;12.076;2023-04-25T10:12:45;2.40;;;2.20;;
7539;SDS011;3811;49.006;12.076;2023-04-25T10:15:12;2.43;;;2.13;;
7539;SDS011;3811;49.006;12.076;2023-04-25T10:17:42;2.20;;;2.00;;
7539;SDS011;3811;49.006;12.076;2023-04-25T10:20:10;2.20;;;2.00;;
7539;SDS011;3811;49.006;12.076;2023-04-25T10:22:38;2.30;;;2.10;;
7539;SDS011;3811;49.006;12.076;2023-04-25T10:25:08;2.00;;;1.90;;
7539;SDS011;3811;49.006;12.076;2023-04-25T10:27:35;1.93;;;1.80;;
7539;SDS011;3811;49.006;12.076;2023-04-25T10:30:03;2.17;;;2.00;;
7539;SDS011;3811;49.006;12.076;2023-04-25T10:32:35;3.10;;;2.80;;
7539;SDS011;3811;49.006;12.076;2023-04-25T10:35:14;4.80;;;3.17;;
7539;SDS011;3811;49.006;12.076;2023-04-25T10:37:56;3.50;;;3.20;;
7539;SDS011;3811;49.006;12.076;2023-04-25T10:40:23;3.67;;;3.37;;
7539;SDS011;3811;49.006;12.076;2023-04-25T10:42:51;4.10;;;3.67;;
7539;SDS011;3811;49.006;12.076;2023-04-25T10:45:18;3.03;;;2.83;;
7539;SDS011;3811;49.006;12.076;2023-04-25T10:47:46;3.80;;;3.50;;
7539;SDS011;3811;49.006;12.076;2023-04-25T10:50:15;3.33;;;3.10;;
7539;SDS011;3811;49.006;12.076;2023-04-25T10:52:42;3.50;;;2.70;;
7539;SDS011;3811;49.006;12.076;2023-04-25T10:55:10;4.17;;;2.90;;
7539;SDS011;3811;49.006;12.076;2023-04-25T10:57:38;3.03;;;2.83;;
7539;SDS011;3811;49.006;12.076;2023-04-25T11:00:10;2.67;;;2.53;;
7539;SDS011;3811;49.006;12.076;2023-04-25T11:02:57;4.33;;;3.00;;
7539;SDS011;3811;49.006;12.076;2023-04-25T11:05:29;3.23;;;2.80;;
7539;SDS011;3811;49.006;12.076;2023-04-25T11:07:58;2.93;;;2.73;;
7539;SDS011;3811;49.006;12.076;2023-04-25T11:10:26;2.43;;;2.23;;
7539;SDS011;3811;49.006;12.076;2023-04-25T11:12:53;2.00;;;1.80;;
7539;SDS011;3811;49.006;12.076;2023-04-25T11:15:20;2.57;;;1.70;;
7539;SDS011;3811;49.006;12.076;2023-04-25T11:17:47;2.27;;;1.80;;
7539;SDS011;3811;49.006;12.076;2023-04-25T11:20:15;1.90;;;1.80;;
7539;SDS011;3811;49.006;12.076;2023-04-25T11:22:45;1.77;;;1.50;;
7539;SDS011;3811;49.006;12.076;2023-04-25T11:25:13;1.07;;;1.07;;
7539;SDS011;3811;49.006;12.076;2023-04-25T11:27:50;1.20;;;1.10;;
7539;SDS011;3811;49.006;12.076;2023-04-25T11:30:18;1.60;;;1.40;;
7539;SDS011;3811;49.006;12.076;2023-04-25T11:32:46;1.57;;;1.47;;
7539;SDS011;3811;49.006;12.076;2023-04-25T11:35:14;1.87;;;1.70;;
7539;SDS011;3811;49.006;12.076;2023-04-25T11:37:41;1.43;;;1.30;;
7539;SDS011;3811;49.006;12.076;2023-04-25T11:40:11;1.43;;;1.30;;
7539;SDS011;3811;49.006;12.076;2023-04-25T11:42:38;1.60;;;1.50;;
7539;SDS011;3811;49.006;12.076;2023-04-25T11:45:12;1.70;;;1.60;;
7539;SDS011;3811;49.006;12.076;2023-04-25T11:47:39;5.93;;;1.40;;
7539;SDS011;3811;49.006;12.076;2023-04-25T11:50:07;1.90;;;1.80;;
7539;SDS011;3811;49.006;12.076;2023-04-25T11:52:35;1.70;;;1.60;;
7539;SDS011;3811;49.006;12.076;2023-04-25T11:55:04;6.50;;;1.80;;
7539;SDS011;3811;49.006;12.076;2023-04-25T11:57:33;1.90;;;1.80;;
7539;SDS011;3811;49.006;12.076;2023-04-25T12:00:08;1.70;;;1.60;;
7539;SDS011;3811;49.006;12.076;2023-04-25T12:02:37;2.10;;;1.90;;
7539;SDS011;3811;49.006;12.076;2023-04-25T12:05:07;1.93;;;1.77;;
7539;SDS011;3811;49.006;12.076;2023-04-25T12:07:34;1.80;;;1.70;;
7539;SDS011;3811;49.006;12.076;2023-04-25T12:10:07;2.47;;;1.47;;
7539;SDS011;3811;49.006;12.076;2023-04-25T12:12:36;1.77;;;1.67;;
7539;SDS011;3811;49.006;12.076;2023-04-25T12:15:10;2.13;;;1.90;;
7539;SDS011;3811;49.006;12.076;2023-04-25T12:17:40;1.67;;;1.57;;
7539;SDS011;3811;49.006;12.076;2023-04-25T12:20:09;2.00;;;1.80;;
7539;SDS011;3811;49.006;12.076;2023-04-25T12:22:36;2.20;;;2.00;;
7539;SDS011;3811;49.006;12.076;2023-04-25T12:25:04;2.10;;;1.97;;
7539;SDS011;3811;49.006;12.076;2023-04-25T12:27:32;2.37;;;2.20;;
7539;SDS011;3811;49.006;12.076;2023-04-25T12:30:02;1.90;;;1.80;;
7539;SDS011;3811;49.006;12.076;2023-04-25T12:32:30;2.33;;;2.13;;
7539;SDS011;3811;49.006;12.076;2023-04-25T12:34:57;2.83;;;2.00;;
7539;SDS011;3811;49.006;12.076;2023-04-25T12:37:24;2.77;;;2.10;;
7539;SDS011;3811;49.006;12.076;2023-04-25T12:39:51;3.70;;;1.73;;
7539;SDS011;3811;49.006;12.076;2023-04-25T12:42:18;2.27;;;1.87;;
7539;SDS011;3811;49.006;12.076;2023-04-25T12:44:46;2.53;;;2.20;;
7539;SDS011;3811;49.006;12.076;2023-04-25T12:47:14;3.30;;;2.70;;
7539;SDS011;3811;49.006;12.076;2023-04-25T12:49:42;2.67;;;2.43;;
7539;SDS011;3811;49.006;12.076;2023-04-25T12:52:09;1.73;;;1.63;;
7539;SDS011;3811;49.006;12.076;2023-04-25T12:54:36;3.27;;;2.40;;
7539;SDS011;3811;49.006;12.076;2023-04-25T12:57:04;3.63;;;2.47;;
7539;SDS011;3811;49.006;12.076;2023-04-25T12:59:31;2.13;;;2.03;;
7539;SDS011;3811;49.006;12.076;2023-04-25T13:01:58;2.37;;;1.90;;
7539;SDS011;3811;49.006;12.076;2023-04-25T13:04:27;1.97;;;1.87;;
7539;SDS011;3811;49.006;12.076;2023-04-25T13:06:54;2.57;;;1.83;;
7539;SDS011;3811;49.006;12.076;2023-04-25T13:09:21;2.13;;;2.00;;
7539;SDS011;3811;49.006;12.076;2023-04-25T13:11:48;2.17;;;1.97;;
7539;SDS011;3811;49.006;12.076;2023-04-25T13:14:16;2.23;;;1.93;;
7539;SDS011;3811;49.006;12.076;2023-04-25T13:16:43;4.30;;;1.87;;
7539;SDS011;3811;49.006;12.076;2023-04-25T13:19:10;2.60;;;1.90;;
7539;SDS011;3811;49.006;12.076;2023-04-25T13:21:39;2.90;;;2.00;;
7539;SDS011;3811;49.006;12.076;2023-04-25T13:24:06;2.10;;;1.90;;
7539;SDS011;3811;49.006;12.076;2023-04-25T13:26:34;2.47;;;2.27;;
7539;SDS011;3811;49.006;12.076;2023-04-25T13:29:01;1.97;;;1.83;;
7539;SDS011;3811;49.006;12.076;2023-04-25T13:31:29;2.70;;;2.50;;
7539;SDS011;3811;49.006;12.076;2023-04-25T13:33:56;3.30;;;2.50;;
7539;SDS011;3811;49.006;12.076;2023-04-25T13:36:24;2.63;;;2.43;;
7539;SDS011;3811;49.006;12.076;2023-04-25T13:38:54;2.53;;;2.37;;
7539;SDS011;3811;49.006;12.076;2023-04-25T13:41:21;3.83;;;2.40;;
7539;SDS011;3811;49.006;12.076;2023-04-25T13:43:48;2.73;;;2.40;;
7539;SDS011;3811;49.006;12.076;2023-04-25T13:46:16;2.57;;;2.23;;
7539;SDS011;3811;49.006;12.076;2023-04-25T13:48:43;3.13;;;2.50;;
7539;SDS011;3811;49.006;12.076;2023-04-25T13:51:14;3.90;;;3.37;;
7539;SDS011;3811;49.006;12.076;2023-04-25T13:53:42;5.53;;;3.33;;
7539;SDS011;3811;49.006;12.076;2023-04-25T13:56:11;3.03;;;2.77;;
7539;SDS011;3811;49.006;12.076;2023-04-25T13:58:39;4.03;;;2.90;;
7539;SDS011;3811;49.006;12.076;2023-04-25T14:01:06;3.90;;;2.80;;
7539;SDS011;3811;49.006;12.076;2023-04-25T14:03:33;6.03;;;4.03;;
7539;SDS011;3811;49.006;12.076;2023-04-25T14:06:01;4.73;;;2.47;;
7539;SDS011;3811;49.006;12.076;2023-04-25T14:08:29;4.07;;;2.40;;
7539;SDS011;3811;49.006;12.076;2023-04-25T14:10:57;2.40;;;2.20;;
7539;SDS011;3811;49.006;12.076;2023-04-25T14:13:25;2.00;;;1.80;;
7539;SDS011;3811;49.006;12.076;2023-04-25T14:15:53;3.50;;;2.40;;
7539;SDS011;3811;49.006;12.076;2023-04-25T14:18:20;1.93;;;1.77;;
7539;SDS011;3811;49.006;12.076;2023-04-25T14:20:47;2.20;;;1.97;;
7539;SDS011;3811;49.006;12.076;2023-04-25T14:23:14;2.97;;;2.43;;
7539;SDS011;3811;49.006;12.076;2023-04-25T14:25:42;3.20;;;1.87;;
7539;SDS011;3811;49.006;12.076;2023-04-25T14:28:10;2.67;;;1.93;;
7539;SDS011;3811;49.006;12.076;2023-04-25T14:30:38;1.97;;;1.87;;
7539;SDS011;3811;49.006;12.076;2023-04-25T14:33:06;3.37;;;1.87;;
7539;SDS011;3811;49.006;12.076;2023-04-25T14:35:33;1.40;;;1.40;;
7539;SDS011;3811;49.006;12.076;2023-04-25T14:38:01;1.83;;;1.40;;
7539;SDS011;3811;49.006;12.076;2023-04-25T14:40:28;2.07;;;1.80;;
7539;SDS011;3811;49.006;12.076;2023-04-25T14:42:55;2.00;;;1.80;;
7539;SDS011;3811;49.006;12.076;2023-04-25T14:45:23;1.70;;;1.60;;
7539;SDS011;3811;49.006;12.076;2023-04-25T14:47:51;1.80;;;1.70;;
7539;SDS011;3811;49.006;12.076;2023-04-25T14:50:19;1.60;;;1.40;;
7539;SDS011;3811;49.006;12.076;2023-04-25T14:52:46;1.43;;;1.33;;
7539;SDS011;3811;49.006;12.076;2023-04-25T14:55:13;1.53;;;1.40;;
7539;SDS011;3811;49.006;12.076;2023-04-25T14:57:41;2.60;;;1.50;;
7539;SDS011;3811;49.006;12.076;2023-04-25T15:00:09;1.70;;;1.33;;
7539;SDS011;3811;49.006;12.076;2023-04-25T15:02:40;1.60;;;1.50;;
7539;SDS011;3811;49.006;12.076;2023-04-25T15:05:09;1.43;;;1.33;;
7539;SDS011;3811;49.006;12.076;2023-04-25T15:07:36;1.30;;;1.30;;
7539;SDS011;3811;49.006;12.076;2023-04-25T15:10:04;1.73;;;1.20;;
7539;SDS011;3811;49.006;12.076;2023-04-25T15:12:36;1.50;;;1.40;;
7539;SDS011;3811;49.006;12.076;2023-04-25T15:15:04;3.87;;;1.60;;
7539;SDS011;3811;49.006;12.076;2023-04-25T15:17:31;1.93;;;1.30;;
7539;SDS011;3811;49.006;12.076;2023-04-25T15:19:59;2.17;;;1.30;;